sensor_id;sensor_type;location;lat;lon;timestamp;temperature;humidity
66257;DHT22;53049;43.446;3.698;2023-11-21T00:00:00;13.50;99.90
66257;DHT22;53049;43.446;3.698;2023-11-21T00:02:26;13.50;99.90
66257;DHT22;53049;43.446;3.698;2023-11-21T00:04:53;13.40;99.90
66257;DHT22;53049;43.446;3.698;2023-11-21T00:07:19;13.40;99.90
66257;DHT22;53049;43.446;3.698;2023-11-21T00:09:46;13.40;99.90
66257;DHT22;53049;43.446;3.698;2023-11-21T00:12:12;13.40;99.90
66257;DHT22;53049;43.446;3.698;2023-11-21T00:14:39;13.40;99.90
66257;DHT22;53049;43.446;3.698;2023-11-21T00:17:05;13.40;99.90
66257;DHT22;53049;43.446;3.698;2023-11-21T00:19:32;13.40;99.90
66257;DHT22;53049;43.446;3.698;2023-11-21T00:21:58;13.30;99.90
66257;DHT22;53049;43.446;3.698;2023-11-21T00:24:24;13.30;99.90
66257;DHT22;53049;43.446;3.698;2023-11-21T00:26:51;13.20;99.90
66257;DHT22;53049;43.446;3.698;2023-11-21T00:29:16;13.20;99.90
66257;DHT22;53049;43.446;3.698;2023-11-21T00:31:44;13.20;99.90
66257;DHT22;53049;43.446;3.698;2023-11-21T00:34:11;13.20;99.90
66257;DHT22;53049;43.446;3.698;2023-11-21T00:36:37;13.20;99.90
66257;DHT22;53049;43.446;3.698;2023-11-21T00:39:03;13.10;99.90
66257;DHT22;53049;43.446;3.698;2023-11-21T00:41:31;13.10;99.90
66257;DHT22;53049;43.446;3.698;2023-11-21T00:43:57;13.10;99.90
66257;DHT22;53049;43.446;3.698;2023-11-21T00:46:24;13.10;99.90
66257;DHT22;53049;43.446;3.698;2023-11-21T00:48:52;13.10;99.90
66257;DHT22;53049;43.446;3.698;2023-11-21T00:51:19;13.10;99.90
66257;DHT22;53049;43.446;3.698;2023-11-21T00:53:45;13.10;99.90
66257;DHT22;53049;43.446;3.698;2023-11-21T00:56:12;13.00;99.90
66257;DHT22;53049;43.446;3.698;2023-11-21T00:58:39;13.10;99.90
66257;DHT22;53049;43.446;3.698;2023-11-21T01:01:08;13.10;99.90
66257;DHT22;53049;43.446;3.698;2023-11-21T01:03:33;13.00;99.90
66257;DHT22;53049;43.446;3.698;2023-11-21T01:05:59;13.00;99.90
66257;DHT22;53049;43.446;3.698;2023-11-21T01:08:25;13.00;99.90
66257;DHT22;53049;43.446;3.698;2023-11-21T01:10:50;13.00;99.90
66257;DHT22;53049;43.446;3.698;2023-11-21T01:13:16;13.00;99.90
66257;DHT22;53049;43.446;3.698;2023-11-21T01:15:42;13.00;99.90
66257;DHT22;53049;43.446;3.698;2023-11-21T01:18:08;13.00;99.90
66257;DHT22;53049;43.446;3.698;2023-11-21T01:20:34;13.00;99.90
66257;DHT22;53049;43.446;3.698;2023-11-21T01:23:00;13.00;99.90
66257;DHT22;53049;43.446;3.698;2023-11-21T01:25:25;13.00;99.90
66257;DHT22;53049;43.446;3.698;2023-11-21T01:27:51;13.00;99.90
66257;DHT22;53049;43.446;3.698;2023-11-21T01:30:17;13.00;99.90
66257;DHT22;53049;43.446;3.698;2023-11-21T01:32:43;12.90;99.90
66257;DHT22;53049;43.446;3.698;2023-11-21T01:35:09;12.90;99.90
66257;DHT22;53049;43.446;3.698;2023-11-21T01:37:36;12.90;99.90
66257;DHT22;53049;43.446;3.698;2023-11-21T01:40:03;12.90;99.90
66257;DHT22;53049;43.446;3.698;2023-11-21T01:42:31;12.90;99.90
66257;DHT22;53049;43.446;3.698;2023-11-21T01:44:57;12.90;99.90
66257;DHT22;53049;43.446;3.698;2023-11-21T01:47:23;12.90;99.90
66257;DHT22;53049;43.446;3.698;2023-11-21T01:49:48;12.90;99.90
66257;DHT22;53049;43.446;3.698;2023-11-21T01:52:14;12.80;99.90
66257;DHT22;53049;43.446;3.698;2023-11-21T01:54:41;12.80;99.90
66257;DHT22;53049;43.446;3.698;2023-11-21T01:57:07;12.80;99.90
66257;DHT22;53049;43.446;3.698;2023-11-21T01:59:37;12.80;99.90
66257;DHT22;53049;43.446;3.698;2023-11-21T02:02:04;12.80;99.90
66257;DHT22;53049;43.446;3.698;2023-11-21T02:04:35;12.80;99.90
66257;DHT22;53049;43.446;3.698;2023-11-21T02:07:02;12.70;99.90
66257;DHT22;53049;43.446;3.698;2023-11-21T02:09:31;12.70;99.90
66257;DHT22;53049;43.446;3.698;2023-11-21T02:12:00;12.70;99.90
66257;DHT22;53049;43.446;3.698;2023-11-21T02:14:27;12.70;99.90
66257;DHT22;53049;43.446;3.698;2023-11-21T02:16:54;12.70;99.90
66257;DHT22;53049;43.446;3.698;2023-11-21T02:19:21;12.70;99.90
66257;DHT22;53049;43.446;3.698;2023-11-21T02:21:52;12.70;99.90
66257;DHT22;53049;43.446;3.698;2023-11-21T02:24:21;12.70;99.90
66257;DHT22;53049;43.446;3.698;2023-11-21T02:26:48;12.70;99.90
66257;DHT22;53049;43.446;3.698;2023-11-21T02:29:14;12.60;99.90
66257;DHT22;53049;43.446;3.698;2023-11-21T02:31:43;12.70;99.90
66257;DHT22;53049;43.446;3.698;2023-11-21T02:34:16;12.70;99.90
66257;DHT22;53049;43.446;3.698;2023-11-21T02:36:45;12.70;99.90
66257;DHT22;53049;43.446;3.698;2023-11-21T02:39:11;12.70;99.90
66257;DHT22;53049;43.446;3.698;2023-11-21T02:41:39;12.70;99.90
66257;DHT22;53049;43.446;3.698;2023-11-21T02:44:09;12.70;99.90
66257;DHT22;53049;43.446;3.698;2023-11-21T02:46:36;12.70;99.90
66257;DHT22;53049;43.446;3.698;2023-11-21T02:49:03;12.70;99.90
66257;DHT22;53049;43.446;3.698;2023-11-21T02:51:29;12.80;99.90
66257;DHT22;53049;43.446;3.698;2023-11-21T02:53:56;12.80;99.90
66257;DHT22;53049;43.446;3.698;2023-11-21T02:56:26;12.80;99.90
66257;DHT22;53049;43.446;3.698;2023-11-21T02:58:52;12.70;99.90
66257;DHT22;53049;43.446;3.698;2023-11-21T03:01:18;12.80;99.90
66257;DHT22;53049;43.446;3.698;2023-11-21T03:03:43;12.70;99.90
66257;DHT22;53049;43.446;3.698;2023-11-21T03:06:09;12.80;99.90
66257;DHT22;53049;43.446;3.698;2023-11-21T03:08:35;12.70;99.90
66257;DHT22;53049;43.446;3.698;2023-11-21T03:11:01;12.70;99.90
66257;DHT22;53049;43.446;3.698;2023-11-21T03:13:30;12.70;99.90
66257;DHT22;53049;43.446;3.698;2023-11-21T03:15:55;12.70;99.90
66257;DHT22;53049;43.446;3.698;2023-11-21T03:18:21;12.80;99.90
66257;DHT22;53049;43.446;3.698;2023-11-21T03:20:52;12.70;99.90
66257;DHT22;53049;43.446;3.698;2023-11-21T03:23:18;12.80;99.90
66257;DHT22;53049;43.446;3.698;2023-11-21T03:25:44;12.80;99.90
66257;DHT22;53049;43.446;3.698;2023-11-21T03:28:10;12.70;99.90
66257;DHT22;53049;43.446;3.698;2023-11-21T03:30:35;12.70;99.90
66257;DHT22;53049;43.446;3.698;2023-11-21T03:33:01;12.70;99.90
66257;DHT22;53049;43.446;3.698;2023-11-21T03:35:27;12.70;99.90
66257;DHT22;53049;43.446;3.698;2023-11-21T03:37:53;12.60;99.90
66257;DHT22;53049;43.446;3.698;2023-11-21T03:40:19;12.60;99.90
66257;DHT22;53049;43.446;3.698;2023-11-21T03:42:46;12.60;99.90
66257;DHT22;53049;43.446;3.698;2023-11-21T03:45:12;12.60;99.90
66257;DHT22;53049;43.446;3.698;2023-11-21T03:47:38;12.60;99.90
66257;DHT22;53049;43.446;3.698;2023-11-21T03:50:05;12.50;99.90
66257;DHT22;53049;43.446;3.698;2023-11-21T03:52:31;12.50;99.90
66257;DHT22;53049;43.446;3.698;2023-11-21T03:54:56;12.50;99.90
66257;DHT22;53049;43.446;3.698;2023-11-21T03:57:22;12.40;99.90
66257;DHT22;53049;43.446;3.698;2023-11-21T03:59:47;12.40;99.90
66257;DHT22;53049;43.446;3.698;2023-11-21T04:02:13;12.40;99.90
66257;DHT22;53049;43.446;3.698;2023-11-21T04:04:39;12.40;99.90
66257;DHT22;53049;43.446;3.698;2023-11-21T04:07:05;12.40;99.90
66257;DHT22;53049;43.446;3.698;2023-11-21T04:09:30;12.40;99.90
66257;DHT22;53049;43.446;3.698;2023-11-21T04:11:56;12.30;99.90
66257;DHT22;53049;43.446;3.698;2023-11-21T04:14:22;12.30;99.90
66257;DHT22;53049;43.446;3.698;2023-11-21T04:16:48;12.30;99.90
66257;DHT22;53049;43.446;3.698;2023-11-21T04:19:14;12.30;99.90
66257;DHT22;53049;43.446;3.698;2023-11-21T04:21:42;12.20;99.90
66257;DHT22;53049;43.446;3.698;2023-11-21T04:24:08;12.10;99.90
66257;DHT22;53049;43.446;3.698;2023-11-21T04:26:33;12.10;99.90
66257;DHT22;53049;43.446;3.698;2023-11-21T04:28:59;12.10;99.90
66257;DHT22;53049;43.446;3.698;2023-11-21T04:31:25;12.10;99.90
66257;DHT22;53049;43.446;3.698;2023-11-21T04:33:50;12.00;99.90
66257;DHT22;53049;43.446;3.698;2023-11-21T04:36:16;11.90;99.90
66257;DHT22;53049;43.446;3.698;2023-11-21T04:38:42;11.90;99.90
66257;DHT22;53049;43.446;3.698;2023-11-21T04:41:08;11.80;99.90
66257;DHT22;53049;43.446;3.698;2023-11-21T04:43:34;11.90;99.90
66257;DHT22;53049;43.446;3.698;2023-11-21T04:45:59;11.90;99.90
66257;DHT22;53049;43.446;3.698;2023-11-21T04:48:25;11.90;99.90
66257;DHT22;53049;43.446;3.698;2023-11-21T04:50:51;12.00;99.90
66257;DHT22;53049;43.446;3.698;2023-11-21T04:53:17;12.00;99.90
66257;DHT22;53049;43.446;3.698;2023-11-21T04:55:43;12.10;99.90
66257;DHT22;53049;43.446;3.698;2023-11-21T04:58:09;12.10;99.90
66257;DHT22;53049;43.446;3.698;2023-11-21T05:00:35;12.20;99.90
66257;DHT22;53049;43.446;3.698;2023-11-21T05:03:02;12.20;99.90
66257;DHT22;53049;43.446;3.698;2023-11-21T05:05:29;12.20;99.90
66257;DHT22;53049;43.446;3.698;2023-11-21T05:07:59;12.20;99.90
66257;DHT22;53049;43.446;3.698;2023-11-21T05:10:25;12.20;99.90
66257;DHT22;53049;43.446;3.698;2023-11-21T05:12:50;12.20;99.90
66257;DHT22;53049;43.446;3.698;2023-11-21T05:15:17;12.20;99.90
66257;DHT22;53049;43.446;3.698;2023-11-21T05:17:43;12.20;99.90
66257;DHT22;53049;43.446;3.698;2023-11-21T05:20:14;12.20;99.90
66257;DHT22;53049;43.446;3.698;2023-11-21T05:22:43;12.20;99.90
66257;DHT22;53049;43.446;3.698;2023-11-21T05:25:09;12.20;99.90
66257;DHT22;53049;43.446;3.698;2023-11-21T05:27:36;12.20;99.90
66257;DHT22;53049;43.446;3.698;2023-11-21T05:30:03;12.20;99.90
66257;DHT22;53049;43.446;3.698;2023-11-21T05:32:34;12.20;99.90
66257;DHT22;53049;43.446;3.698;2023-11-21T05:35:00;12.20;99.90
66257;DHT22;53049;43.446;3.698;2023-11-21T05:37:26;12.20;99.90
66257;DHT22;53049;43.446;3.698;2023-11-21T05:39:53;12.20;99.90
66257;DHT22;53049;43.446;3.698;2023-11-21T05:42:22;12.20;99.90
66257;DHT22;53049;43.446;3.698;2023-11-21T05:44:48;12.10;99.90
66257;DHT22;53049;43.446;3.698;2023-11-21T05:47:14;12.10;99.90
66257;DHT22;53049;43.446;3.698;2023-11-21T05:49:40;12.10;99.90
66257;DHT22;53049;43.446;3.698;2023-11-21T05:52:06;12.10;99.90
66257;DHT22;53049;43.446;3.698;2023-11-21T05:54:32;12.10;99.90
66257;DHT22;53049;43.446;3.698;2023-11-21T05:56:58;12.00;99.90
66257;DHT22;53049;43.446;3.698;2023-11-21T05:59:24;12.00;99.90
66257;DHT22;53049;43.446;3.698;2023-11-21T06:01:50;11.80;99.90
66257;DHT22;53049;43.446;3.698;2023-11-21T06:04:15;11.80;99.90
66257;DHT22;53049;43.446;3.698;2023-11-21T06:06:41;11.70;99.90
66257;DHT22;53049;43.446;3.698;2023-11-21T06:09:07;11.70;99.90
66257;DHT22;53049;43.446;3.698;2023-11-21T06:11:35;11.80;99.90
66257;DHT22;53049;43.446;3.698;2023-11-21T06:14:01;11.70;99.90
66257;DHT22;53049;43.446;3.698;2023-11-21T06:16:26;11.70;99.90
66257;DHT22;53049;43.446;3.698;2023-11-21T06:18:53;11.70;99.90
66257;DHT22;53049;43.446;3.698;2023-11-21T06:21:19;11.80;99.90
66257;DHT22;53049;43.446;3.698;2023-11-21T06:23:44;11.80;99.90
66257;DHT22;53049;43.446;3.698;2023-11-21T06:26:10;11.70;99.90
66257;DHT22;53049;43.446;3.698;2023-11-21T06:28:36;11.70;99.90
66257;DHT22;53049;43.446;3.698;2023-11-21T06:31:02;11.80;99.90
66257;DHT22;53049;43.446;3.698;2023-11-21T06:33:31;12.00;99.90
66257;DHT22;53049;43.446;3.698;2023-11-21T06:35:57;12.00;99.90
66257;DHT22;53049;43.446;3.698;2023-11-21T06:38:23;12.00;99.90
66257;DHT22;53049;43.446;3.698;2023-11-21T06:40:49;12.00;99.90
66257;DHT22;53049;43.446;3.698;2023-11-21T06:43:14;11.90;99.90
66257;DHT22;53049;43.446;3.698;2023-11-21T06:45:40;11.90;99.90
66257;DHT22;53049;43.446;3.698;2023-11-21T06:48:06;12.00;99.90
66257;DHT22;53049;43.446;3.698;2023-11-21T06:50:32;11.90;99.90
66257;DHT22;53049;43.446;3.698;2023-11-21T06:52:58;11.90;99.90
66257;DHT22;53049;43.446;3.698;2023-11-21T06:55:23;12.00;99.90
66257;DHT22;53049;43.446;3.698;2023-11-21T06:57:49;11.90;99.90
66257;DHT22;53049;43.446;3.698;2023-11-21T07:00:17;12.00;99.90
66257;DHT22;53049;43.446;3.698;2023-11-21T07:02:44;12.00;99.90
66257;DHT22;53049;43.446;3.698;2023-11-21T07:05:10;12.00;99.90
66257;DHT22;53049;43.446;3.698;2023-11-21T07:07:36;12.00;99.90
66257;DHT22;53049;43.446;3.698;2023-11-21T07:10:03;12.00;99.90
66257;DHT22;53049;43.446;3.698;2023-11-21T07:12:30;12.00;99.90
66257;DHT22;53049;43.446;3.698;2023-11-21T07:14:57;12.10;99.90
66257;DHT22;53049;43.446;3.698;2023-11-21T07:17:23;12.10;99.90
66257;DHT22;53049;43.446;3.698;2023-11-21T07:19:49;12.00;99.90
66257;DHT22;53049;43.446;3.698;2023-11-21T07:22:15;12.10;99.90
66257;DHT22;53049;43.446;3.698;2023-11-21T07:24:51;12.10;99.90
66257;DHT22;53049;43.446;3.698;2023-11-21T07:27:17;12.20;99.90
66257;DHT22;53049;43.446;3.698;2023-11-21T07:29:42;12.30;99.90
66257;DHT22;53049;43.446;3.698;2023-11-21T07:32:08;12.30;99.90
66257;DHT22;53049;43.446;3.698;2023-11-21T07:34:35;12.30;99.90
66257;DHT22;53049;43.446;3.698;2023-11-21T07:37:01;12.40;99.90
66257;DHT22;53049;43.446;3.698;2023-11-21T07:39:28;12.50;99.90
66257;DHT22;53049;43.446;3.698;2023-11-21T07:41:54;12.50;99.90
66257;DHT22;53049;43.446;3.698;2023-11-21T07:44:19;12.50;99.90
66257;DHT22;53049;43.446;3.698;2023-11-21T07:46:45;12.60;99.90
66257;DHT22;53049;43.446;3.698;2023-11-21T07:49:12;12.60;99.90
66257;DHT22;53049;43.446;3.698;2023-11-21T07:51:41;12.60;99.90
66257;DHT22;53049;43.446;3.698;2023-11-21T07:54:07;12.50;99.90
66257;DHT22;53049;43.446;3.698;2023-11-21T07:56:33;12.60;99.90
66257;DHT22;53049;43.446;3.698;2023-11-21T07:58:58;12.70;99.90
66257;DHT22;53049;43.446;3.698;2023-11-21T08:01:24;12.70;99.90
66257;DHT22;53049;43.446;3.698;2023-11-21T08:03:50;12.70;99.90
66257;DHT22;53049;43.446;3.698;2023-11-21T08:06:18;12.80;99.90
66257;DHT22;53049;43.446;3.698;2023-11-21T08:08:43;12.80;99.90
66257;DHT22;53049;43.446;3.698;2023-11-21T08:11:09;12.80;99.90
66257;DHT22;53049;43.446;3.698;2023-11-21T08:13:36;12.80;99.90
66257;DHT22;53049;43.446;3.698;2023-11-21T08:16:02;12.90;99.90
66257;DHT22;53049;43.446;3.698;2023-11-21T08:18:30;12.90;99.90
66257;DHT22;53049;43.446;3.698;2023-11-21T08:20:56;13.00;99.90
66257;DHT22;53049;43.446;3.698;2023-11-21T08:23:22;13.00;99.90
66257;DHT22;53049;43.446;3.698;2023-11-21T08:25:52;13.00;99.90
66257;DHT22;53049;43.446;3.698;2023-11-21T08:28:18;13.00;99.90
66257;DHT22;53049;43.446;3.698;2023-11-21T08:30:44;13.10;99.90
66257;DHT22;53049;43.446;3.698;2023-11-21T08:33:10;13.10;99.90
66257;DHT22;53049;43.446;3.698;2023-11-21T08:35:37;13.20;99.90
66257;DHT22;53049;43.446;3.698;2023-11-21T08:38:03;13.20;99.90
66257;DHT22;53049;43.446;3.698;2023-11-21T08:40:29;13.20;99.90
66257;DHT22;53049;43.446;3.698;2023-11-21T08:42:55;13.20;99.90
66257;DHT22;53049;43.446;3.698;2023-11-21T08:45:25;13.30;99.90
66257;DHT22;53049;43.446;3.698;2023-11-21T08:47:51;13.30;99.90
66257;DHT22;53049;43.446;3.698;2023-11-21T08:50:17;13.30;99.90
66257;DHT22;53049;43.446;3.698;2023-11-21T08:52:44;13.40;99.90
66257;DHT22;53049;43.446;3.698;2023-11-21T08:55:11;13.40;99.90
66257;DHT22;53049;43.446;3.698;2023-11-21T08:57:38;13.50;99.90
66257;DHT22;53049;43.446;3.698;2023-11-21T09:00:07;13.50;99.90
66257;DHT22;53049;43.446;3.698;2023-11-21T09:02:40;13.60;99.90
66257;DHT22;53049;43.446;3.698;2023-11-21T09:05:12;13.60;99.90
66257;DHT22;53049;43.446;3.698;2023-11-21T09:07:39;13.70;99.90
66257;DHT22;53049;43.446;3.698;2023-11-21T09:10:06;13.80;99.90
66257;DHT22;53049;43.446;3.698;2023-11-21T09:12:33;13.80;99.90
66257;DHT22;53049;43.446;3.698;2023-11-21T09:15:02;13.90;99.90
66257;DHT22;53049;43.446;3.698;2023-11-21T09:17:27;13.90;99.90
66257;DHT22;53049;43.446;3.698;2023-11-21T09:19:53;13.90;99.90
66257;DHT22;53049;43.446;3.698;2023-11-21T09:22:19;14.00;99.90
66257;DHT22;53049;43.446;3.698;2023-11-21T09:24:45;14.00;99.90
66257;DHT22;53049;43.446;3.698;2023-11-21T09:27:10;14.10;99.90
66257;DHT22;53049;43.446;3.698;2023-11-21T09:29:36;14.10;99.90
66257;DHT22;53049;43.446;3.698;2023-11-21T09:32:08;14.10;99.90
66257;DHT22;53049;43.446;3.698;2023-11-21T09:34:37;14.10;99.90
66257;DHT22;53049;43.446;3.698;2023-11-21T09:37:04;14.10;99.90
66257;DHT22;53049;43.446;3.698;2023-11-21T09:39:31;14.10;99.90
66257;DHT22;53049;43.446;3.698;2023-11-21T09:42:04;14.10;99.90
66257;DHT22;53049;43.446;3.698;2023-11-21T09:44:45;14.20;99.90
66257;DHT22;53049;43.446;3.698;2023-11-21T09:47:15;14.20;99.90
66257;DHT22;53049;43.446;3.698;2023-11-21T09:49:47;14.20;99.90
66257;DHT22;53049;43.446;3.698;2023-11-21T09:52:26;14.20;99.90
66257;DHT22;53049;43.446;3.698;2023-11-21T09:54:53;14.30;99.90
66257;DHT22;53049;43.446;3.698;2023-11-21T09:57:20;14.30;99.90
66257;DHT22;53049;43.446;3.698;2023-11-21T09:59:53;14.30;99.90
66257;DHT22;53049;43.446;3.698;2023-11-21T10:02:33;14.30;99.90
66257;DHT22;53049;43.446;3.698;2023-11-21T10:05:02;14.40;99.90
66257;DHT22;53049;43.446;3.698;2023-11-21T10:07:28;14.40;99.90
66257;DHT22;53049;43.446;3.698;2023-11-21T10:09:57;14.40;99.90
66257;DHT22;53049;43.446;3.698;2023-11-21T10:12:24;14.40;99.90
66257;DHT22;53049;43.446;3.698;2023-11-21T10:14:52;14.50;99.90
66257;DHT22;53049;43.446;3.698;2023-11-21T10:17:20;14.50;99.90
66257;DHT22;53049;43.446;3.698;2023-11-21T10:19:47;14.50;99.90
66257;DHT22;53049;43.446;3.698;2023-11-21T10:22:15;14.60;99.90
66257;DHT22;53049;43.446;3.698;2023-11-21T10:24:41;14.60;99.90
66257;DHT22;53049;43.446;3.698;2023-11-21T10:27:09;14.70;99.90
66257;DHT22;53049;43.446;3.698;2023-11-21T10:29:35;14.70;99.90
66257;DHT22;53049;43.446;3.698;2023-11-21T10:32:04;14.70;99.90
66257;DHT22;53049;43.446;3.698;2023-11-21T10:34:31;14.80;99.90
66257;DHT22;53049;43.446;3.698;2023-11-21T10:36:57;14.80;99.90
66257;DHT22;53049;43.446;3.698;2023-11-21T10:39:23;14.90;99.90
66257;DHT22;53049;43.446;3.698;2023-11-21T10:41:53;14.90;99.90
66257;DHT22;53049;43.446;3.698;2023-11-21T10:44:20;15.00;99.90
66257;DHT22;53049;43.446;3.698;2023-11-21T10:46:51;14.90;99.90
66257;DHT22;53049;43.446;3.698;2023-11-21T10:49:18;15.00;99.90
66257;DHT22;53049;43.446;3.698;2023-11-21T10:51:45;15.00;99.90
66257;DHT22;53049;43.446;3.698;2023-11-21T10:54:10;14.90;99.90
66257;DHT22;53049;43.446;3.698;2023-11-21T10:56:39;14.90;99.90
66257;DHT22;53049;43.446;3.698;2023-11-21T10:59:10;14.90;99.90
66257;DHT22;53049;43.446;3.698;2023-11-21T11:01:46;14.90;99.90
66257;DHT22;53049;43.446;3.698;2023-11-21T11:04:18;15.00;99.90
66257;DHT22;53049;43.446;3.698;2023-11-21T11:06:56;15.00;99.90
66257;DHT22;53049;43.446;3.698;2023-11-21T11:09:23;15.00;99.90
66257;DHT22;53049;43.446;3.698;2023-11-21T11:11:48;15.10;99.90
66257;DHT22;53049;43.446;3.698;2023-11-21T11:14:15;15.10;99.90
66257;DHT22;53049;43.446;3.698;2023-11-21T11:16:41;15.20;99.90
66257;DHT22;53049;43.446;3.698;2023-11-21T11:19:08;15.20;99.90
66257;DHT22;53049;43.446;3.698;2023-11-21T11:24:40;15.30;99.90
66257;DHT22;53049;43.446;3.698;2023-11-21T11:30:06;15.50;99.90
66257;DHT22;53049;43.446;3.698;2023-11-21T11:32:40;15.50;99.90
66257;DHT22;53049;43.446;3.698;2023-11-21T11:35:31;15.50;99.90
66257;DHT22;53049;43.446;3.698;2023-11-21T11:37:59;15.50;99.90
66257;DHT22;53049;43.446;3.698;2023-11-21T11:40:39;15.60;99.90
66257;DHT22;53049;43.446;3.698;2023-11-21T11:43:06;15.60;99.90
66257;DHT22;53049;43.446;3.698;2023-11-21T11:45:33;15.70;99.90
66257;DHT22;53049;43.446;3.698;2023-11-21T11:48:01;15.70;99.90
66257;DHT22;53049;43.446;3.698;2023-11-21T11:50:27;15.80;99.90
66257;DHT22;53049;43.446;3.698;2023-11-21T11:52:53;15.70;99.90
66257;DHT22;53049;43.446;3.698;2023-11-21T11:55:24;15.60;99.90
66257;DHT22;53049;43.446;3.698;2023-11-21T11:57:54;15.50;99.90
66257;DHT22;53049;43.446;3.698;2023-11-21T12:02:56;15.40;99.90
66257;DHT22;53049;43.446;3.698;2023-11-21T12:05:25;15.30;99.90
66257;DHT22;53049;43.446;3.698;2023-11-21T12:07:57;15.20;99.90
66257;DHT22;53049;43.446;3.698;2023-11-21T12:10:30;15.30;99.90
66257;DHT22;53049;43.446;3.698;2023-11-21T12:13:06;15.30;99.90
66257;DHT22;53049;43.446;3.698;2023-11-21T12:15:36;15.20;99.90
66257;DHT22;53049;43.446;3.698;2023-11-21T12:18:02;15.20;99.90
66257;DHT22;53049;43.446;3.698;2023-11-21T12:20:30;15.30;99.90
66257;DHT22;53049;43.446;3.698;2023-11-21T12:23:00;15.40;99.90
66257;DHT22;53049;43.446;3.698;2023-11-21T12:25:28;15.50;99.90
66257;DHT22;53049;43.446;3.698;2023-11-21T12:27:55;15.50;99.90
66257;DHT22;53049;43.446;3.698;2023-11-21T12:30:23;15.60;99.90
66257;DHT22;53049;43.446;3.698;2023-11-21T12:32:54;15.70;99.90
66257;DHT22;53049;43.446;3.698;2023-11-21T12:35:24;15.70;99.90
66257;DHT22;53049;43.446;3.698;2023-11-21T12:37:51;15.70;99.90
66257;DHT22;53049;43.446;3.698;2023-11-21T12:40:18;15.70;99.90
66257;DHT22;53049;43.446;3.698;2023-11-21T12:42:46;15.80;99.90
66257;DHT22;53049;43.446;3.698;2023-11-21T12:45:18;15.80;99.90
66257;DHT22;53049;43.446;3.698;2023-11-21T12:47:54;15.80;99.90
66257;DHT22;53049;43.446;3.698;2023-11-21T12:50:25;15.80;99.90
66257;DHT22;53049;43.446;3.698;2023-11-21T12:52:57;15.90;99.90
66257;DHT22;53049;43.446;3.698;2023-11-21T12:55:24;15.90;99.90
66257;DHT22;53049;43.446;3.698;2023-11-21T12:57:55;15.90;99.90
66257;DHT22;53049;43.446;3.698;2023-11-21T13:00:48;16.00;99.90
66257;DHT22;53049;43.446;3.698;2023-11-21T13:03:17;16.00;99.90
66257;DHT22;53049;43.446;3.698;2023-11-21T13:05:49;16.00;99.90
66257;DHT22;53049;43.446;3.698;2023-11-21T13:08:20;16.10;99.90
66257;DHT22;53049;43.446;3.698;2023-11-21T13:10:52;16.10;99.90
66257;DHT22;53049;43.446;3.698;2023-11-21T13:13:20;16.20;99.90
66257;DHT22;53049;43.446;3.698;2023-11-21T13:15:54;16.20;99.90
66257;DHT22;53049;43.446;3.698;2023-11-21T13:18:26;16.30;99.90
66257;DHT22;53049;43.446;3.698;2023-11-21T13:20:53;16.30;99.90
66257;DHT22;53049;43.446;3.698;2023-11-21T13:23:20;16.40;99.90
66257;DHT22;53049;43.446;3.698;2023-11-21T13:25:46;16.40;99.90
66257;DHT22;53049;43.446;3.698;2023-11-21T13:28:14;16.40;99.90
66257;DHT22;53049;43.446;3.698;2023-11-21T13:30:46;16.30;99.90
66257;DHT22;53049;43.446;3.698;2023-11-21T13:33:12;16.30;99.90
66257;DHT22;53049;43.446;3.698;2023-11-21T13:35:43;16.40;99.90
66257;DHT22;53049;43.446;3.698;2023-11-21T13:38:18;16.30;99.90
66257;DHT22;53049;43.446;3.698;2023-11-21T13:40:48;16.30;99.90
66257;DHT22;53049;43.446;3.698;2023-11-21T13:43:16;16.40;99.90
66257;DHT22;53049;43.446;3.698;2023-11-21T13:45:44;16.40;99.90
66257;DHT22;53049;43.446;3.698;2023-11-21T13:48:12;16.40;99.90
66257;DHT22;53049;43.446;3.698;2023-11-21T13:50:45;16.40;99.90
66257;DHT22;53049;43.446;3.698;2023-11-21T13:53:29;16.40;99.90
66257;DHT22;53049;43.446;3.698;2023-11-21T13:55:55;16.40;99.90
66257;DHT22;53049;43.446;3.698;2023-11-21T13:58:23;16.50;99.90
66257;DHT22;53049;43.446;3.698;2023-11-21T14:01:00;16.40;99.90
66257;DHT22;53049;43.446;3.698;2023-11-21T14:03:31;16.50;99.90
66257;DHT22;53049;43.446;3.698;2023-11-21T14:06:10;16.30;99.90
66257;DHT22;53049;43.446;3.698;2023-11-21T14:08:41;16.30;99.90
66257;DHT22;53049;43.446;3.698;2023-11-21T14:11:07;16.30;99.90
66257;DHT22;53049;43.446;3.698;2023-11-21T14:13:33;16.30;99.90
66257;DHT22;53049;43.446;3.698;2023-11-21T14:15:59;16.30;99.90
66257;DHT22;53049;43.446;3.698;2023-11-21T14:18:26;16.30;99.90
66257;DHT22;53049;43.446;3.698;2023-11-21T14:21:16;16.20;99.90
66257;DHT22;53049;43.446;3.698;2023-11-21T14:23:42;16.20;99.90
66257;DHT22;53049;43.446;3.698;2023-11-21T14:26:08;16.20;99.90
66257;DHT22;53049;43.446;3.698;2023-11-21T14:28:34;16.20;99.90
66257;DHT22;53049;43.446;3.698;2023-11-21T14:31:02;16.20;99.90
66257;DHT22;53049;43.446;3.698;2023-11-21T14:33:28;16.20;99.90
66257;DHT22;53049;43.446;3.698;2023-11-21T14:35:54;16.20;99.90
66257;DHT22;53049;43.446;3.698;2023-11-21T14:38:20;16.20;99.90
66257;DHT22;53049;43.446;3.698;2023-11-21T14:40:46;16.20;99.90
66257;DHT22;53049;43.446;3.698;2023-11-21T14:43:12;16.30;99.90
66257;DHT22;53049;43.446;3.698;2023-11-21T14:45:38;16.30;99.90
66257;DHT22;53049;43.446;3.698;2023-11-21T14:48:04;16.30;99.90
66257;DHT22;53049;43.446;3.698;2023-11-21T14:50:30;16.30;99.90
66257;DHT22;53049;43.446;3.698;2023-11-21T14:53:09;16.20;99.90
66257;DHT22;53049;43.446;3.698;2023-11-21T14:55:36;16.30;99.90
66257;DHT22;53049;43.446;3.698;2023-11-21T14:58:17;16.30;99.90
66257;DHT22;53049;43.446;3.698;2023-11-21T15:00:53;16.20;99.90
66257;DHT22;53049;43.446;3.698;2023-11-21T15:03:24;16.20;99.90
66257;DHT22;53049;43.446;3.698;2023-11-21T15:06:02;16.20;99.90
66257;DHT22;53049;43.446;3.698;2023-11-21T15:08:50;16.10;99.90
66257;DHT22;53049;43.446;3.698;2023-11-21T15:11:34;16.10;99.90
66257;DHT22;53049;43.446;3.698;2023-11-21T15:14:00;16.10;99.90
66257;DHT22;53049;43.446;3.698;2023-11-21T15:16:26;16.00;99.90
66257;DHT22;53049;43.446;3.698;2023-11-21T15:18:52;16.00;99.90
66257;DHT22;53049;43.446;3.698;2023-11-21T15:21:21;16.00;99.90
66257;DHT22;53049;43.446;3.698;2023-11-21T15:23:50;15.90;99.90
66257;DHT22;53049;43.446;3.698;2023-11-21T15:26:16;15.90;99.90
66257;DHT22;53049;43.446;3.698;2023-11-21T15:28:42;15.90;99.90
66257;DHT22;53049;43.446;3.698;2023-11-21T15:31:08;15.80;99.90
66257;DHT22;53049;43.446;3.698;2023-11-21T15:33:34;15.80;99.90
66257;DHT22;53049;43.446;3.698;2023-11-21T15:36:03;15.80;99.90
66257;DHT22;53049;43.446;3.698;2023-11-21T15:38:29;15.80;99.90
66257;DHT22;53049;43.446;3.698;2023-11-21T15:40:55;15.80;99.90